createdAt,value
2023-02-19T00:02:03.442Z,9.52
2023-02-19T00:04:48.680Z,9.46
2023-02-19T00:07:33.414Z,9.47
2023-02-19T00:10:18.635Z,9.46
2023-02-19T00:13:03.441Z,9.46
2023-02-19T00:15:48.642Z,9.48
2023-02-19T00:18:33.669Z,9.46
2023-02-19T00:21:19.282Z,9.49
2023-02-19T00:24:06.600Z,9.50
2023-02-19T00:26:51.735Z,9.53
2023-02-19T00:29:36.829Z,9.54
2023-02-19T00:32:21.813Z,9.58
2023-02-19T00:35:06.634Z,9.59
2023-02-19T00:37:51.798Z,9.63
2023-02-19T00:40:38.248Z,9.65
2023-02-19T00:43:23.399Z,9.67
2023-02-19T00:46:08.195Z,9.68
2023-02-19T00:48:54.174Z,9.70
2023-02-19T00:51:39.352Z,9.72
2023-02-19T00:54:24.723Z,9.68
2023-02-19T00:57:09.853Z,9.66
2023-02-19T00:59:54.884Z,9.65
2023-02-19T01:02:39.877Z,9.62
2023-02-19T01:05:24.912Z,9.64
2023-02-19T01:08:09.865Z,9.66
2023-02-19T01:10:54.893Z,9.63
2023-02-19T01:13:40.777Z,9.64
2023-02-19T01:16:27.351Z,9.65
2023-02-19T01:19:15.062Z,9.65
2023-02-19T01:22:00.165Z,9.65
2023-02-19T01:24:45.434Z,9.67
2023-02-19T01:27:30.383Z,9.67
2023-02-19T01:30:15.805Z,9.64
2023-02-19T01:33:00.838Z,9.64
2023-02-19T01:35:46.030Z,9.62
2023-02-19T01:38:31.036Z,9.59
2023-02-19T01:41:19.382Z,9.65
2023-02-19T01:44:07.896Z,9.61
2023-02-19T01:46:57.283Z,9.67
2023-02-19T01:49:51.457Z,9.64
2023-02-19T01:52:36.907Z,9.74
2023-02-19T01:55:23.496Z,9.75
2023-02-19T01:58:09.672Z,9.73
2023-02-19T02:00:54.673Z,9.73
2023-02-19T02:03:41.858Z,9.77
2023-02-19T02:06:34.127Z,9.84
2023-02-19T02:09:39.716Z,9.79
2023-02-19T02:12:24.953Z,9.73
2023-02-19T02:15:09.908Z,9.82
2023-02-19T02:18:10.228Z,9.82
2023-02-19T02:21:04.484Z,9.83
2023-02-19T02:24:12.828Z,9.85
2023-02-19T02:27:07.057Z,9.91
2023-02-19T02:30:07.329Z,9.93
2023-02-19T02:33:10.952Z,9.93
2023-02-19T02:36:00.783Z,9.93
2023-02-19T02:38:48.198Z,9.93
2023-02-19T02:41:33.691Z,9.91
2023-02-19T02:44:18.500Z,9.87
2023-02-19T02:47:06.548Z,9.80
2023-02-19T02:50:05.035Z,9.76
2023-02-19T02:53:14.810Z,9.69
2023-02-19T02:56:00.410Z,9.66
2023-02-19T02:58:48.678Z,9.64
2023-02-19T03:01:56.600Z,9.62
2023-02-19T03:05:09.400Z,9.61
2023-02-19T03:08:16.398Z,9.61
2023-02-19T03:11:24.084Z,9.59
2023-02-19T03:14:42.799Z,9.62
2023-02-19T03:18:05.338Z,9.61
2023-02-19T03:20:55.585Z,9.59
2023-02-19T03:24:01.166Z,9.59
2023-02-19T03:26:53.664Z,9.62
2023-02-19T03:29:41.071Z,9.56
2023-02-19T03:32:34.698Z,9.53
2023-02-19T03:35:24.483Z,9.52
2023-02-19T03:38:18.529Z,9.51
2023-02-19T03:41:10.274Z,9.51
2023-02-19T03:44:18.504Z,9.53
2023-02-19T03:47:13.626Z,9.58
2023-02-19T03:50:01.515Z,9.53
2023-02-19T03:52:58.380Z,9.57
2023-02-19T03:56:00.044Z,9.54
2023-02-19T03:58:56.489Z,9.55
2023-02-19T04:01:50.832Z,9.55
2023-02-19T04:04:41.087Z,9.56
2023-02-19T04:07:28.324Z,9.57
2023-02-19T04:10:14.910Z,9.57
2023-02-19T04:13:06.659Z,9.51
2023-02-19T04:15:54.970Z,9.54
2023-02-19T04:18:43.134Z,9.55
2023-02-19T04:21:30.545Z,9.54
2023-02-19T04:24:26.406Z,9.52
2023-02-19T04:27:11.479Z,9.49
2023-02-19T04:29:56.564Z,9.52
2023-02-19T04:32:41.637Z,9.50
2023-02-19T04:35:26.399Z,9.51
2023-02-19T04:38:13.631Z,9.49
2023-02-19T04:40:58.489Z,9.52
2023-02-19T04:43:43.826Z,9.58
2023-02-19T04:46:28.741Z,9.57
2023-02-19T04:49:13.825Z,9.61
2023-02-19T04:51:58.548Z,9.61
2023-02-19T04:54:43.820Z,9.51
2023-02-19T04:57:28.744Z,9.51
2023-02-19T05:00:14.160Z,9.46
2023-02-19T05:02:59.915Z,9.36
2023-02-19T05:05:44.918Z,9.35
2023-02-19T05:08:29.796Z,9.29
2023-02-19T05:11:14.874Z,9.29
2023-02-19T05:14:00.010Z,9.23
2023-02-19T05:16:44.950Z,9.19
2023-02-19T05:19:29.833Z,9.19
2023-02-19T05:22:15.014Z,9.19
2023-02-19T05:24:59.891Z,9.19
2023-02-19T05:27:44.939Z,9.19
2023-02-19T05:30:29.882Z,9.20
2023-02-19T05:33:16.631Z,9.30
2023-02-19T05:36:09.221Z,9.36
2023-02-19T05:38:55.887Z,9.34
2023-02-19T05:41:41.246Z,9.34
2023-02-19T05:44:27.503Z,9.34
2023-02-19T05:47:12.358Z,9.27
2023-02-19T05:49:57.185Z,9.21
2023-02-19T05:52:43.511Z,9.18
2023-02-19T05:55:29.536Z,9.14
2023-02-19T05:58:14.755Z,9.11
2023-02-19T06:00:59.721Z,9.10
2023-02-19T06:03:44.868Z,9.07
2023-02-19T06:06:29.783Z,9.04
2023-02-19T06:09:14.990Z,9.06
2023-02-19T06:11:59.768Z,9.04
2023-02-19T06:14:45.061Z,8.98
2023-02-19T06:17:30.568Z,8.99
2023-02-19T06:20:15.528Z,8.98
2023-02-19T06:23:00.578Z,9.03
2023-02-19T06:25:45.780Z,9.01
2023-02-19T06:28:30.823Z,9.05
2023-02-19T06:31:17.061Z,9.06
2023-02-19T06:34:05.844Z,9.07
2023-02-19T06:36:51.098Z,9.12
2023-02-19T06:39:36.442Z,9.11
2023-02-19T06:42:21.482Z,9.09
2023-02-19T06:45:06.685Z,9.09
2023-02-19T06:47:51.424Z,9.08
2023-02-19T06:50:36.403Z,9.07
2023-02-19T06:53:21.987Z,9.07
2023-02-19T06:56:30.344Z,9.05
2023-02-19T06:59:19.017Z,9.03
2023-02-19T07:02:05.078Z,9.08
2023-02-19T07:04:50.146Z,9.11
2023-02-19T07:07:35.226Z,9.12
2023-02-19T07:10:20.100Z,9.11
2023-02-19T07:13:05.090Z,9.07
2023-02-19T07:15:52.176Z,9.03
2023-02-19T07:18:38.703Z,9.05
2023-02-19T07:21:23.718Z,8.99
2023-02-19T07:24:10.060Z,8.96
2023-02-19T07:26:54.834Z,8.87
2023-02-19T07:29:39.672Z,8.87
2023-02-19T07:32:24.912Z,8.82
2023-02-19T07:35:09.866Z,8.89
2023-02-19T07:37:55.103Z,8.95
2023-02-19T07:40:39.925Z,8.94
2023-02-19T07:43:26.670Z,8.84
2023-02-19T07:46:13.722Z,8.91
2023-02-19T07:48:59.688Z,9.03
2023-02-19T07:51:45.027Z,8.96
2023-02-19T07:54:29.808Z,8.94
2023-02-19T07:57:15.121Z,9.01
2023-02-19T08:00:00.128Z,8.92
2023-02-19T08:03:00.404Z,8.91
2023-02-19T08:05:45.957Z,8.92
2023-02-19T08:08:31.082Z,8.91
2023-02-19T08:11:35.016Z,9.00
2023-02-19T08:14:24.517Z,8.98
2023-02-19T08:17:09.583Z,9.01
2023-02-19T08:19:54.690Z,9.10
2023-02-19T08:22:39.581Z,9.14
2023-02-19T08:25:25.744Z,9.20
2023-02-19T08:28:11.762Z,9.29
2023-02-19T08:31:02.142Z,9.34
2023-02-19T08:33:47.140Z,9.36
2023-02-19T08:36:32.044Z,9.46
2023-02-19T08:39:18.430Z,9.48
2023-02-19T08:42:05.001Z,9.52
2023-02-19T08:44:49.999Z,9.65
2023-02-19T08:47:36.089Z,9.73
2023-02-19T08:50:22.257Z,9.79
2023-02-19T08:53:07.267Z,9.67
2023-02-19T08:55:53.087Z,9.54
2023-02-19T08:58:38.953Z,9.64
2023-02-19T09:01:23.912Z,9.62
2023-02-19T09:04:12.906Z,9.78
2023-02-19T09:06:58.039Z,9.81
2023-02-19T09:09:43.264Z,9.91
2023-02-19T09:12:28.215Z,10.07
2023-02-19T09:15:13.222Z,10.01
2023-02-19T09:17:58.165Z,10.22
2023-02-19T09:20:43.279Z,10.24
2023-02-19T09:23:28.529Z,10.40
2023-02-19T09:26:14.005Z,10.19
2023-02-19T09:28:58.737Z,10.19
2023-02-19T09:31:44.317Z,10.02
2023-02-19T09:34:29.293Z,9.74
2023-02-19T09:37:14.599Z,9.59
2023-02-19T09:39:59.446Z,9.68
2023-02-19T09:42:44.615Z,9.57
2023-02-19T09:45:30.087Z,9.62
2023-02-19T09:48:14.856Z,9.57
2023-02-19T09:51:01.644Z,9.55
2023-02-19T09:53:50.707Z,9.54
2023-02-19T09:56:35.807Z,9.61
2023-02-19T09:59:24.473Z,9.58
2023-02-19T10:02:17.208Z,9.52
2023-02-19T10:05:03.614Z,9.56
2023-02-19T10:07:52.225Z,9.49
2023-02-19T10:10:37.556Z,9.43
2023-02-19T10:13:30.311Z,9.34
2023-02-19T10:16:21.186Z,9.37
2023-02-19T10:19:10.485Z,9.23
2023-02-19T10:21:56.640Z,9.14
2023-02-19T10:24:43.624Z,9.22
2023-02-19T10:27:31.602Z,9.20
2023-02-19T10:30:21.477Z,9.25
2023-02-19T10:33:12.606Z,9.26
2023-02-19T10:36:04.295Z,9.46
2023-02-19T10:38:49.094Z,9.83
2023-02-19T10:41:40.577Z,9.86
2023-02-19T10:44:30.537Z,9.88
2023-02-19T10:47:22.347Z,9.72
2023-02-19T10:50:21.462Z,9.89
2023-02-19T10:53:06.354Z,9.48
2023-02-19T10:56:13.257Z,9.37
2023-02-19T10:59:26.062Z,9.45
2023-02-19T11:02:19.412Z,10.49
2023-02-19T11:05:07.240Z,11.42
2023-02-19T11:07:55.001Z,11.79
2023-02-19T11:10:42.157Z,11.85
2023-02-19T11:13:32.072Z,12.72
2023-02-19T11:16:17.001Z,12.35
2023-02-19T11:19:02.935Z,10.85
2023-02-19T11:21:48.217Z,10.85
2023-02-19T11:24:37.466Z,11.06
2023-02-19T11:27:24.517Z,11.09
2023-02-19T11:30:36.236Z,10.93
2023-02-19T11:33:27.279Z,12.38
2023-02-19T11:36:15.508Z,11.46
2023-02-19T11:39:15.754Z,10.69
2023-02-19T11:42:19.304Z,10.29
2023-02-19T11:45:26.165Z,10.47
2023-02-19T11:48:31.638Z,10.54
2023-02-19T11:51:37.938Z,10.41
2023-02-19T11:54:58.075Z,10.29
2023-02-19T11:57:48.153Z,10.09
2023-02-19T12:00:58.841Z,10.01
2023-02-19T12:03:58.829Z,9.92
2023-02-19T12:07:24.338Z,10.28
2023-02-19T12:10:24.881Z,10.26
2023-02-19T12:13:28.556Z,10.13
2023-02-19T12:16:28.312Z,10.19
2023-02-19T12:19:32.077Z,10.50
2023-02-19T12:22:30.909Z,10.32
2023-02-19T12:25:29.566Z,10.32
2023-02-19T12:28:23.843Z,10.11
2023-02-19T12:31:14.414Z,10.25
2023-02-19T12:34:44.067Z,10.14
2023-02-19T12:37:52.686Z,10.25
2023-02-19T12:40:56.541Z,10.45
2023-02-19T12:43:52.650Z,10.52
2023-02-19T12:46:51.383Z,10.61
2023-02-19T12:49:46.331Z,10.56
2023-02-19T12:52:40.153Z,10.52
2023-02-19T12:55:35.732Z,10.65
2023-02-19T12:58:29.629Z,10.67
2023-02-19T13:01:23.111Z,10.86
2023-02-19T13:04:21.768Z,10.77
2023-02-19T13:07:12.517Z,10.64
2023-02-19T13:10:25.220Z,10.49
2023-02-19T13:13:17.486Z,10.65
2023-02-19T13:16:09.510Z,10.62
2023-02-19T13:19:00.290Z,10.45
2023-02-19T13:22:11.454Z,10.26
2023-02-19T13:24:57.400Z,10.09
2023-02-19T13:28:01.181Z,10.04
2023-02-19T13:31:05.342Z,9.75
2023-02-19T13:34:05.494Z,9.66
2023-02-19T13:36:50.997Z,9.51
2023-02-19T13:39:36.036Z,9.40
2023-02-19T13:42:57.982Z,9.19
2023-02-19T13:45:46.849Z,9.23
2023-02-19T13:48:31.692Z,9.23
2023-02-19T13:51:16.937Z,9.28
2023-02-19T13:54:13.912Z,9.21
2023-02-19T13:57:18.001Z,9.14
2023-02-19T14:00:49.336Z,9.25
2023-02-19T14:03:34.640Z,9.31
2023-02-19T14:06:20.095Z,9.46
2023-02-19T14:09:34.079Z,9.51
2023-02-19T14:12:21.644Z,9.66
2023-02-19T14:15:39.123Z,9.74
2023-02-19T14:18:46.584Z,9.80
2023-02-19T14:21:37.482Z,9.68
2023-02-19T14:24:23.424Z,9.80
2023-02-19T14:27:08.322Z,9.86
2023-02-19T14:29:53.884Z,9.86
2023-02-19T14:32:43.587Z,10.16
2023-02-19T14:35:43.026Z,10.00
2023-02-19T14:38:59.179Z,10.03
2023-02-19T14:41:47.958Z,10.06
2023-02-19T14:44:50.066Z,10.00
2023-02-19T14:47:37.221Z,9.95
2023-02-19T14:50:30.328Z,9.97
2023-02-19T14:53:16.191Z,9.82
2023-02-19T14:56:01.549Z,9.74
2023-02-19T14:59:11.024Z,9.76
2023-02-19T15:02:20.933Z,9.92
2023-02-19T15:05:15.515Z,9.79
2023-02-19T15:08:04.773Z,9.76
2023-02-19T15:10:49.722Z,9.78
2023-02-19T15:13:34.971Z,9.78
2023-02-19T15:16:23.679Z,9.71
2023-02-19T15:19:16.157Z,9.66
2023-02-19T15:22:01.922Z,9.67
2023-02-19T15:24:48.662Z,9.63
2023-02-19T15:27:35.007Z,9.68
2023-02-19T15:30:29.459Z,9.68
2023-02-19T15:33:20.001Z,9.68
2023-02-19T15:36:07.558Z,9.68
2023-02-19T15:38:55.713Z,9.74
2023-02-19T15:41:42.701Z,9.64
2023-02-19T15:44:38.029Z,9.64
2023-02-19T15:47:33.084Z,9.58
2023-02-19T15:50:28.752Z,9.55
2023-02-19T15:53:20.206Z,9.58
2023-02-19T15:56:16.121Z,9.54
2023-02-19T15:59:06.499Z,9.50
2023-02-19T16:01:51.786Z,9.46
2023-02-19T16:04:36.921Z,9.47
2023-02-19T16:07:26.168Z,9.41
2023-02-19T16:10:24.643Z,9.41
2023-02-19T16:13:11.733Z,9.38
2023-02-19T16:16:15.948Z,9.34
2023-02-19T16:19:01.377Z,9.36
2023-02-19T16:21:46.557Z,9.36
2023-02-19T16:24:37.015Z,9.35
2023-02-19T16:27:32.265Z,9.34
2023-02-19T16:30:17.283Z,9.24
2023-02-19T16:33:22.224Z,9.26
2023-02-19T16:36:29.736Z,9.27
2023-02-19T16:39:17.000Z,9.23
2023-02-19T16:42:02.101Z,9.23
2023-02-19T16:44:47.728Z,9.18
2023-02-19T16:47:36.738Z,9.11
2023-02-19T16:50:24.211Z,9.11
2023-02-19T16:53:22.320Z,9.09
2023-02-19T16:56:15.232Z,9.03
2023-02-19T16:59:00.253Z,8.95
2023-02-19T17:01:45.176Z,8.94
2023-02-19T17:04:30.347Z,8.89
2023-02-19T17:07:16.934Z,8.90
2023-02-19T17:10:02.165Z,8.93
2023-02-19T17:12:47.139Z,8.81
2023-02-19T17:15:32.042Z,8.76
2023-02-19T17:18:17.457Z,8.77
2023-02-19T17:21:15.284Z,8.78
2023-02-19T17:24:00.259Z,8.79
2023-02-19T17:26:45.398Z,8.75
2023-02-19T17:29:33.766Z,8.76
2023-02-19T17:32:18.558Z,8.79
2023-02-19T17:35:03.417Z,8.82
2023-02-19T17:37:48.718Z,8.75
2023-02-19T17:40:34.066Z,8.72
2023-02-19T17:43:18.937Z,8.70
2023-02-19T17:46:04.051Z,8.72
2023-02-19T17:48:49.295Z,8.74
2023-02-19T17:51:34.761Z,8.79
2023-02-19T17:54:19.696Z,8.69
2023-02-19T17:57:04.608Z,8.69
2023-02-19T17:59:49.657Z,8.68
2023-02-19T18:02:34.673Z,8.73
2023-02-19T18:05:20.066Z,8.71
2023-02-19T18:08:05.026Z,8.63
2023-02-19T18:10:50.232Z,8.56
2023-02-19T18:13:35.158Z,8.53
2023-02-19T18:16:21.902Z,8.56
2023-02-19T18:19:07.260Z,8.53
2023-02-19T18:21:52.581Z,8.45
2023-02-19T18:24:37.512Z,8.43
2023-02-19T18:27:23.444Z,8.44
2023-02-19T18:30:09.338Z,8.37
2023-02-19T18:32:54.456Z,8.33
2023-02-19T18:35:39.294Z,8.30
2023-02-19T18:38:24.355Z,8.30
2023-02-19T18:41:13.564Z,8.27
2023-02-19T18:43:59.730Z,8.30
2023-02-19T18:46:44.961Z,8.31
2023-02-19T18:49:32.111Z,8.32
2023-02-19T18:52:20.228Z,8.25
2023-02-19T18:55:05.740Z,8.25
2023-02-19T18:57:50.962Z,8.22
2023-02-19T19:00:35.954Z,8.22
2023-02-19T19:03:20.862Z,8.20
2023-02-19T19:06:05.816Z,8.20
2023-02-19T19:08:50.773Z,8.22
2023-02-19T19:11:36.162Z,8.21
2023-02-19T19:14:21.423Z,8.27
2023-02-19T19:17:06.308Z,8.28
2023-02-19T19:19:51.370Z,8.30
2023-02-19T19:22:36.559Z,8.17
2023-02-19T19:25:22.569Z,8.18
2023-02-19T19:28:07.785Z,8.16
2023-02-19T19:30:53.238Z,8.14
2023-02-19T19:33:38.428Z,8.13
2023-02-19T19:36:23.565Z,8.14
2023-02-19T19:39:09.088Z,8.09
2023-02-19T19:41:55.671Z,8.14
2023-02-19T19:44:40.955Z,8.05
2023-02-19T19:47:26.000Z,8.05
2023-02-19T19:50:13.029Z,8.08
2023-02-19T19:52:57.814Z,8.02
2023-02-19T19:55:42.726Z,8.05
2023-02-19T19:58:27.967Z,7.95
2023-02-19T20:01:13.400Z,7.99
2023-02-19T20:03:58.295Z,8.05
2023-02-19T20:06:43.204Z,8.02
2023-02-19T20:09:28.965Z,7.98
2023-02-19T20:12:13.930Z,8.08
2023-02-19T20:14:59.083Z,8.08
2023-02-19T20:17:44.228Z,7.99
2023-02-19T20:20:29.745Z,7.97
2023-02-19T20:23:14.736Z,7.91
2023-02-19T20:25:59.565Z,7.95
2023-02-19T20:28:46.330Z,7.84
2023-02-19T20:31:31.452Z,7.82
2023-02-19T20:34:17.392Z,7.79
2023-02-19T20:37:02.478Z,7.85
2023-02-19T20:39:47.541Z,7.87
2023-02-19T20:42:32.585Z,7.71
2023-02-19T20:45:17.912Z,7.77
2023-02-19T20:48:03.174Z,7.75
2023-02-19T20:50:48.413Z,7.70
2023-02-19T20:53:33.321Z,7.71
2023-02-19T20:56:18.351Z,7.70
2023-02-19T20:59:03.251Z,7.68
2023-02-19T21:01:49.146Z,7.64
2023-02-19T21:04:34.055Z,7.66
2023-02-19T21:07:19.777Z,7.61
2023-02-19T21:10:05.349Z,7.64
2023-02-19T21:12:52.214Z,7.57
2023-02-19T21:15:37.530Z,7.59
2023-02-19T21:18:22.685Z,7.51
2023-02-19T21:21:07.517Z,7.53
2023-02-19T21:23:53.585Z,7.52
2023-02-19T21:26:40.276Z,7.51
2023-02-19T21:29:25.889Z,7.60
2023-02-19T21:32:11.075Z,7.59
2023-02-19T21:34:56.710Z,7.47
2023-02-19T21:37:43.306Z,7.46
2023-02-19T21:40:29.884Z,7.42
2023-02-19T21:43:15.087Z,7.39
2023-02-19T21:46:00.205Z,7.37
2023-02-19T21:48:50.795Z,7.35
2023-02-19T21:51:38.565Z,7.35
2023-02-19T21:54:25.243Z,7.32
2023-02-19T21:57:10.364Z,7.29
2023-02-19T21:59:55.467Z,7.23
2023-02-19T22:02:41.961Z,7.23
2023-02-19T22:05:27.085Z,7.16
2023-02-19T22:08:11.976Z,7.11
2023-02-19T22:10:57.057Z,7.04
2023-02-19T22:13:42.037Z,7.04
2023-02-19T22:16:28.521Z,6.96
2023-02-19T22:19:13.726Z,6.70
2023-02-19T22:21:58.851Z,6.67
2023-02-19T22:24:43.636Z,6.73
2023-02-19T22:27:29.124Z,6.77
2023-02-19T22:30:14.612Z,6.74
2023-02-19T22:32:59.560Z,6.57
2023-02-19T22:35:44.441Z,6.65
2023-02-19T22:38:29.531Z,6.68
2023-02-19T22:41:15.607Z,6.68
2023-02-19T22:44:00.954Z,6.67
2023-02-19T22:46:48.943Z,6.66
2023-02-19T22:49:33.866Z,6.58
2023-02-19T22:52:18.651Z,6.50
2023-02-19T22:55:03.925Z,6.30
2023-02-19T22:57:48.821Z,6.33
2023-02-19T23:00:33.757Z,5.95
2023-02-19T23:03:18.759Z,6.03
2023-02-19T23:06:04.611Z,6.15
2023-02-19T23:08:50.029Z,6.22
2023-02-19T23:11:38.897Z,6.19
2023-02-19T23:14:24.222Z,6.19
2023-02-19T23:17:09.070Z,6.16
2023-02-19T23:19:54.182Z,6.14
2023-02-19T23:22:39.850Z,6.08
2023-02-19T23:25:24.729Z,5.82
2023-02-19T23:28:09.501Z,6.00
2023-02-19T23:30:54.690Z,5.91
2023-02-19T23:33:39.678Z,5.93
2023-02-19T23:36:24.688Z,5.85
2023-02-19T23:39:15.092Z,5.80
2023-02-19T23:42:00.195Z,5.68
2023-02-19T23:44:48.512Z,5.40
2023-02-19T23:47:33.615Z,5.49
2023-02-19T23:50:18.539Z,5.53
2023-02-19T23:53:04.304Z,5.60
2023-02-19T23:55:49.177Z,5.56
2023-02-19T23:58:34.087Z,5.23
